sensor_id;sensor_type;location;lat;lon;timestamp;temperature;humidity
67820;DHT22;54618;52.018;5.576;2023-04-24T00:00:56;19.50;51.80
67820;DHT22;54618;52.018;5.576;2023-04-24T00:03:23;19.50;51.80
67820;DHT22;54618;52.018;5.576;2023-04-24T00:05:48;19.50;52.50
67820;DHT22;54618;52.018;5.576;2023-04-24T00:08:14;19.50;51.80
67820;DHT22;54618;52.018;5.576;2023-04-24T00:10:40;19.50;51.80
67820;DHT22;54618;52.018;5.576;2023-04-24T00:13:06;19.50;51.80
67820;DHT22;54618;52.018;5.576;2023-04-24T00:15:32;19.50;51.80
67820;DHT22;54618;52.018;5.576;2023-04-24T00:17:57;19.50;51.80
67820;DHT22;54618;52.018;5.576;2023-04-24T00:20:23;19.40;51.80
67820;DHT22;54618;52.018;5.576;2023-04-24T00:22:48;19.50;51.90
67820;DHT22;54618;52.018;5.576;2023-04-24T00:25:14;19.40;51.80
67820;DHT22;54618;52.018;5.576;2023-04-24T00:27:39;19.40;52.50
67820;DHT22;54618;52.018;5.576;2023-04-24T00:30:05;19.40;51.80
67820;DHT22;54618;52.018;5.576;2023-04-24T00:32:31;19.40;51.80
67820;DHT22;54618;52.018;5.576;2023-04-24T00:34:57;19.40;51.80
67820;DHT22;54618;52.018;5.576;2023-04-24T00:37:22;19.40;51.80
67820;DHT22;54618;52.018;5.576;2023-04-24T00:39:48;19.40;51.80
67820;DHT22;54618;52.018;5.576;2023-04-24T00:42:13;19.40;51.80
67820;DHT22;54618;52.018;5.576;2023-04-24T00:44:39;19.40;51.80
67820;DHT22;54618;52.018;5.576;2023-04-24T00:47:05;19.40;51.90
67820;DHT22;54618;52.018;5.576;2023-04-24T00:49:30;19.40;51.90
67820;DHT22;54618;52.018;5.576;2023-04-24T00:51:56;19.40;51.90
67820;DHT22;54618;52.018;5.576;2023-04-24T00:54:22;19.40;51.90
67820;DHT22;54618;52.018;5.576;2023-04-24T00:56:47;19.40;51.90
67820;DHT22;54618;52.018;5.576;2023-04-24T00:59:14;19.30;51.80
67820;DHT22;54618;52.018;5.576;2023-04-24T01:01:41;19.40;52.00
67820;DHT22;54618;52.018;5.576;2023-04-24T01:04:08;19.40;51.90
67820;DHT22;54618;52.018;5.576;2023-04-24T01:06:40;19.30;51.80
67820;DHT22;54618;52.018;5.576;2023-04-24T01:09:07;19.30;51.80
67820;DHT22;54618;52.018;5.576;2023-04-24T01:11:36;19.30;51.80
67820;DHT22;54618;52.018;5.576;2023-04-24T01:14:02;19.30;51.80
67820;DHT22;54618;52.018;5.576;2023-04-24T01:16:28;19.30;51.80
67820;DHT22;54618;52.018;5.576;2023-04-24T01:18:53;19.30;51.90
67820;DHT22;54618;52.018;5.576;2023-04-24T01:21:20;19.30;51.80
67820;DHT22;54618;52.018;5.576;2023-04-24T01:23:46;19.30;51.80
67820;DHT22;54618;52.018;5.576;2023-04-24T01:26:16;19.30;51.80
67820;DHT22;54618;52.018;5.576;2023-04-24T01:28:42;19.30;51.80
67820;DHT22;54618;52.018;5.576;2023-04-24T01:31:08;19.30;51.90
67820;DHT22;54618;52.018;5.576;2023-04-24T01:33:33;19.30;51.90
67820;DHT22;54618;52.018;5.576;2023-04-24T01:35:59;19.20;52.00
67820;DHT22;54618;52.018;5.576;2023-04-24T01:38:25;19.30;51.90
67820;DHT22;54618;52.018;5.576;2023-04-24T01:40:51;19.30;51.90
67820;DHT22;54618;52.018;5.576;2023-04-24T01:43:17;19.20;51.80
67820;DHT22;54618;52.018;5.576;2023-04-24T01:45:42;19.20;51.80
67820;DHT22;54618;52.018;5.576;2023-04-24T01:48:08;19.20;51.80
67820;DHT22;54618;52.018;5.576;2023-04-24T01:50:34;19.20;51.80
67820;DHT22;54618;52.018;5.576;2023-04-24T01:52:59;19.20;51.90
67820;DHT22;54618;52.018;5.576;2023-04-24T01:55:25;19.20;51.80
67820;DHT22;54618;52.018;5.576;2023-04-24T01:57:52;19.20;51.80
67820;DHT22;54618;52.018;5.576;2023-04-24T02:00:18;19.20;51.80
67820;DHT22;54618;52.018;5.576;2023-04-24T02:02:44;19.20;51.80
67820;DHT22;54618;52.018;5.576;2023-04-24T02:05:10;19.20;51.80
67820;DHT22;54618;52.018;5.576;2023-04-24T02:07:36;19.20;51.90
67820;DHT22;54618;52.018;5.576;2023-04-24T02:10:02;19.10;51.80
67820;DHT22;54618;52.018;5.576;2023-04-24T02:12:29;19.10;51.80
67820;DHT22;54618;52.018;5.576;2023-04-24T02:14:55;19.10;51.80
67820;DHT22;54618;52.018;5.576;2023-04-24T02:17:20;19.20;51.90
67820;DHT22;54618;52.018;5.576;2023-04-24T02:19:46;19.20;51.90
67820;DHT22;54618;52.018;5.576;2023-04-24T02:22:12;19.10;51.80
67820;DHT22;54618;52.018;5.576;2023-04-24T02:24:38;19.10;51.80
67820;DHT22;54618;52.018;5.576;2023-04-24T02:27:03;19.10;51.80
67820;DHT22;54618;52.018;5.576;2023-04-24T02:29:29;19.10;51.80
67820;DHT22;54618;52.018;5.576;2023-04-24T02:31:55;19.10;51.80
67820;DHT22;54618;52.018;5.576;2023-04-24T02:34:20;19.10;51.80
67820;DHT22;54618;52.018;5.576;2023-04-24T02:36:46;19.10;51.90
67820;DHT22;54618;52.018;5.576;2023-04-24T02:39:11;19.10;51.80
67820;DHT22;54618;52.018;5.576;2023-04-24T02:41:37;19.10;51.90
67820;DHT22;54618;52.018;5.576;2023-04-24T02:44:02;19.10;51.80
67820;DHT22;54618;52.018;5.576;2023-04-24T02:46:28;19.10;51.90
67820;DHT22;54618;52.018;5.576;2023-04-24T02:48:54;19.10;51.90
67820;DHT22;54618;52.018;5.576;2023-04-24T02:51:19;19.00;51.80
67820;DHT22;54618;52.018;5.576;2023-04-24T02:53:45;19.00;51.80
67820;DHT22;54618;52.018;5.576;2023-04-24T02:56:10;19.10;51.90
67820;DHT22;54618;52.018;5.576;2023-04-24T02:58:38;19.00;51.80
67820;DHT22;54618;52.018;5.576;2023-04-24T03:01:03;19.10;51.90
67820;DHT22;54618;52.018;5.576;2023-04-24T03:03:29;19.00;51.80
67820;DHT22;54618;52.018;5.576;2023-04-24T03:05:54;19.00;51.90
67820;DHT22;54618;52.018;5.576;2023-04-24T03:08:22;19.00;51.90
67820;DHT22;54618;52.018;5.576;2023-04-24T03:10:47;19.00;51.80
67820;DHT22;54618;52.018;5.576;2023-04-24T03:13:13;19.00;51.80
67820;DHT22;54618;52.018;5.576;2023-04-24T03:15:39;19.00;51.90
67820;DHT22;54618;52.018;5.576;2023-04-24T03:18:04;19.00;51.90
67820;DHT22;54618;52.018;5.576;2023-04-24T03:20:30;19.00;51.90
67820;DHT22;54618;52.018;5.576;2023-04-24T03:22:55;19.00;51.90
67820;DHT22;54618;52.018;5.576;2023-04-24T03:25:22;19.00;51.80
67820;DHT22;54618;52.018;5.576;2023-04-24T03:27:47;19.00;51.90
67820;DHT22;54618;52.018;5.576;2023-04-24T03:30:13;18.90;51.80
67820;DHT22;54618;52.018;5.576;2023-04-24T03:32:38;19.00;51.90
67820;DHT22;54618;52.018;5.576;2023-04-24T03:35:08;19.00;51.90
67820;DHT22;54618;52.018;5.576;2023-04-24T03:37:34;18.90;51.80
67820;DHT22;54618;52.018;5.576;2023-04-24T03:40:00;19.00;51.90
67820;DHT22;54618;52.018;5.576;2023-04-24T03:42:25;19.00;51.90
67820;DHT22;54618;52.018;5.576;2023-04-24T03:44:51;18.90;51.80
67820;DHT22;54618;52.018;5.576;2023-04-24T03:47:16;18.90;51.80
67820;DHT22;54618;52.018;5.576;2023-04-24T03:49:42;18.90;51.80
67820;DHT22;54618;52.018;5.576;2023-04-24T03:52:07;18.90;52.40
67820;DHT22;54618;52.018;5.576;2023-04-24T03:54:33;18.90;51.90
67820;DHT22;54618;52.018;5.576;2023-04-24T03:56:58;18.90;51.80
67820;DHT22;54618;52.018;5.576;2023-04-24T03:59:24;18.90;51.80
67820;DHT22;54618;52.018;5.576;2023-04-24T04:01:50;18.90;51.90
67820;DHT22;54618;52.018;5.576;2023-04-24T04:04:15;18.90;51.80
67820;DHT22;54618;52.018;5.576;2023-04-24T04:06:41;18.90;51.90
67820;DHT22;54618;52.018;5.576;2023-04-24T04:09:07;18.90;51.90
67820;DHT22;54618;52.018;5.576;2023-04-24T04:11:33;18.90;51.90
67820;DHT22;54618;52.018;5.576;2023-04-24T04:14:00;18.90;51.90
67820;DHT22;54618;52.018;5.576;2023-04-24T04:16:26;18.90;51.90
67820;DHT22;54618;52.018;5.576;2023-04-24T04:18:51;18.90;51.90
67820;DHT22;54618;52.018;5.576;2023-04-24T04:21:17;18.80;51.80
67820;DHT22;54618;52.018;5.576;2023-04-24T04:23:43;18.80;51.80
67820;DHT22;54618;52.018;5.576;2023-04-24T04:26:09;18.80;51.80
67820;DHT22;54618;52.018;5.576;2023-04-24T04:28:34;18.90;51.90
67820;DHT22;54618;52.018;5.576;2023-04-24T04:31:00;18.80;51.80
67820;DHT22;54618;52.018;5.576;2023-04-24T04:33:26;18.80;51.90
67820;DHT22;54618;52.018;5.576;2023-04-24T04:35:51;18.80;51.80
67820;DHT22;54618;52.018;5.576;2023-04-24T04:38:18;18.80;51.80
67820;DHT22;54618;52.018;5.576;2023-04-24T04:40:45;18.80;51.90
67820;DHT22;54618;52.018;5.576;2023-04-24T04:43:10;18.80;51.80
67820;DHT22;54618;52.018;5.576;2023-04-24T04:45:37;18.80;51.80
67820;DHT22;54618;52.018;5.576;2023-04-24T04:48:04;18.80;51.90
67820;DHT22;54618;52.018;5.576;2023-04-24T04:50:30;18.80;51.90
67820;DHT22;54618;52.018;5.576;2023-04-24T04:52:55;18.80;51.90
67820;DHT22;54618;52.018;5.576;2023-04-24T04:55:21;18.80;51.80
67820;DHT22;54618;52.018;5.576;2023-04-24T04:57:47;18.80;52.00
67820;DHT22;54618;52.018;5.576;2023-04-24T05:00:13;18.80;51.90
67820;DHT22;54618;52.018;5.576;2023-04-24T05:02:39;18.80;51.90
67820;DHT22;54618;52.018;5.576;2023-04-24T05:05:05;18.80;51.90
67820;DHT22;54618;52.018;5.576;2023-04-24T05:07:31;18.70;51.80
67820;DHT22;54618;52.018;5.576;2023-04-24T05:09:57;18.70;51.80
67820;DHT22;54618;52.018;5.576;2023-04-24T05:12:22;18.70;51.80
67820;DHT22;54618;52.018;5.576;2023-04-24T05:14:48;18.80;51.80
67820;DHT22;54618;52.018;5.576;2023-04-24T05:17:13;18.80;51.90
67820;DHT22;54618;52.018;5.576;2023-04-24T05:19:39;18.70;51.80
67820;DHT22;54618;52.018;5.576;2023-04-24T05:22:04;18.70;51.80
67820;DHT22;54618;52.018;5.576;2023-04-24T05:24:35;18.70;51.80
67820;DHT22;54618;52.018;5.576;2023-04-24T05:27:01;18.70;51.80
67820;DHT22;54618;52.018;5.576;2023-04-24T05:29:28;18.70;51.80
67820;DHT22;54618;52.018;5.576;2023-04-24T05:31:56;18.70;51.80
67820;DHT22;54618;52.018;5.576;2023-04-24T05:34:21;18.70;51.80
67820;DHT22;54618;52.018;5.576;2023-04-24T05:36:47;18.70;51.80
67820;DHT22;54618;52.018;5.576;2023-04-24T05:39:13;18.90;51.70
67820;DHT22;54618;52.018;5.576;2023-04-24T05:41:40;19.40;51.20
67820;DHT22;54618;52.018;5.576;2023-04-24T05:44:05;19.80;51.10
67820;DHT22;54618;52.018;5.576;2023-04-24T05:46:31;20.20;49.90
67820;DHT22;54618;52.018;5.576;2023-04-24T05:48:56;20.50;49.60
67820;DHT22;54618;52.018;5.576;2023-04-24T05:51:22;20.70;49.40
67820;DHT22;54618;52.018;5.576;2023-04-24T05:53:47;20.70;49.20
67820;DHT22;54618;52.018;5.576;2023-04-24T05:56:13;20.90;49.20
67820;DHT22;54618;52.018;5.576;2023-04-24T05:58:38;20.90;49.20
67820;DHT22;54618;52.018;5.576;2023-04-24T06:01:05;21.00;49.20
67820;DHT22;54618;52.018;5.576;2023-04-24T06:03:31;21.10;49.10
67820;DHT22;54618;52.018;5.576;2023-04-24T06:05:57;21.20;49.10
67820;DHT22;54618;52.018;5.576;2023-04-24T06:08:22;21.20;49.00
67820;DHT22;54618;52.018;5.576;2023-04-24T06:10:48;21.20;49.00
67820;DHT22;54618;52.018;5.576;2023-04-24T06:13:13;21.30;49.00
67820;DHT22;54618;52.018;5.576;2023-04-24T06:15:39;21.30;49.00
67820;DHT22;54618;52.018;5.576;2023-04-24T06:18:04;21.30;49.10
67820;DHT22;54618;52.018;5.576;2023-04-24T06:20:30;21.30;49.10
67820;DHT22;54618;52.018;5.576;2023-04-24T06:22:55;21.30;49.10
67820;DHT22;54618;52.018;5.576;2023-04-24T06:25:21;21.30;49.20
67820;DHT22;54618;52.018;5.576;2023-04-24T06:27:46;21.30;49.20
67820;DHT22;54618;52.018;5.576;2023-04-24T06:30:12;21.20;49.20
67820;DHT22;54618;52.018;5.576;2023-04-24T06:32:39;21.20;49.20
67820;DHT22;54618;52.018;5.576;2023-04-24T06:35:05;21.30;49.30
67820;DHT22;54618;52.018;5.576;2023-04-24T06:37:32;21.20;49.20
67820;DHT22;54618;52.018;5.576;2023-04-24T06:39:58;21.30;49.40
67820;DHT22;54618;52.018;5.576;2023-04-24T06:42:23;21.20;49.30
67820;DHT22;54618;52.018;5.576;2023-04-24T06:44:50;21.20;49.20
67820;DHT22;54618;52.018;5.576;2023-04-24T06:47:15;21.20;49.20
67820;DHT22;54618;52.018;5.576;2023-04-24T06:49:41;21.30;49.20
67820;DHT22;54618;52.018;5.576;2023-04-24T06:52:07;21.20;49.20
67820;DHT22;54618;52.018;5.576;2023-04-24T06:54:34;21.30;49.30
67820;DHT22;54618;52.018;5.576;2023-04-24T06:56:59;21.30;49.20
67820;DHT22;54618;52.018;5.576;2023-04-24T06:59:28;21.30;49.20
67820;DHT22;54618;52.018;5.576;2023-04-24T07:01:55;21.20;49.20
67820;DHT22;54618;52.018;5.576;2023-04-24T07:04:21;21.20;49.10
67820;DHT22;54618;52.018;5.576;2023-04-24T07:06:47;21.30;49.20
67820;DHT22;54618;52.018;5.576;2023-04-24T07:09:14;21.30;49.20
67820;DHT22;54618;52.018;5.576;2023-04-24T07:11:41;21.30;49.10
67820;DHT22;54618;52.018;5.576;2023-04-24T07:14:07;21.30;49.20
67820;DHT22;54618;52.018;5.576;2023-04-24T07:16:33;21.30;49.10
67820;DHT22;54618;52.018;5.576;2023-04-24T07:18:58;21.30;49.10
67820;DHT22;54618;52.018;5.576;2023-04-24T07:21:24;21.30;49.00
67820;DHT22;54618;52.018;5.576;2023-04-24T07:23:51;21.20;49.60
67820;DHT22;54618;52.018;5.576;2023-04-24T07:26:16;21.20;49.10
67820;DHT22;54618;52.018;5.576;2023-04-24T07:28:42;21.20;49.30
67820;DHT22;54618;52.018;5.576;2023-04-24T07:31:08;21.30;49.40
67820;DHT22;54618;52.018;5.576;2023-04-24T07:33:34;21.30;49.40
67820;DHT22;54618;52.018;5.576;2023-04-24T07:36:01;21.20;49.40
67820;DHT22;54618;52.018;5.576;2023-04-24T07:38:29;21.20;49.40
67820;DHT22;54618;52.018;5.576;2023-04-24T07:40:55;21.20;49.40
67820;DHT22;54618;52.018;5.576;2023-04-24T07:43:21;21.20;49.40
67820;DHT22;54618;52.018;5.576;2023-04-24T07:45:47;21.30;49.50
67820;DHT22;54618;52.018;5.576;2023-04-24T07:48:13;21.20;49.40
67820;DHT22;54618;52.018;5.576;2023-04-24T07:50:41;21.30;49.50
67820;DHT22;54618;52.018;5.576;2023-04-24T07:53:07;21.30;49.40
67820;DHT22;54618;52.018;5.576;2023-04-24T07:55:32;21.30;49.40
67820;DHT22;54618;52.018;5.576;2023-04-24T07:57:58;21.30;49.40
67820;DHT22;54618;52.018;5.576;2023-04-24T08:00:23;21.30;49.40
67820;DHT22;54618;52.018;5.576;2023-04-24T08:02:49;21.30;49.30
67820;DHT22;54618;52.018;5.576;2023-04-24T08:05:15;21.40;49.40
67820;DHT22;54618;52.018;5.576;2023-04-24T08:07:40;21.40;49.30
67820;DHT22;54618;52.018;5.576;2023-04-24T08:10:09;21.40;49.30
67820;DHT22;54618;52.018;5.576;2023-04-24T08:12:36;21.40;49.30
67820;DHT22;54618;52.018;5.576;2023-04-24T08:15:02;21.40;49.40
67820;DHT22;54618;52.018;5.576;2023-04-24T08:17:27;21.40;49.30
67820;DHT22;54618;52.018;5.576;2023-04-24T08:19:53;21.40;49.30
67820;DHT22;54618;52.018;5.576;2023-04-24T08:22:24;21.40;49.30
67820;DHT22;54618;52.018;5.576;2023-04-24T08:24:50;21.40;49.30
67820;DHT22;54618;52.018;5.576;2023-04-24T08:27:15;21.40;49.30
67820;DHT22;54618;52.018;5.576;2023-04-24T08:29:41;21.40;49.30
67820;DHT22;54618;52.018;5.576;2023-04-24T08:32:06;21.50;49.30
67820;DHT22;54618;52.018;5.576;2023-04-24T08:34:32;21.40;49.30
67820;DHT22;54618;52.018;5.576;2023-04-24T08:36:57;21.40;49.30
67820;DHT22;54618;52.018;5.576;2023-04-24T08:39:23;21.50;49.30
67820;DHT22;54618;52.018;5.576;2023-04-24T08:41:49;21.40;49.20
67820;DHT22;54618;52.018;5.576;2023-04-24T08:44:16;21.50;49.20
67820;DHT22;54618;52.018;5.576;2023-04-24T08:46:46;21.50;49.20
67820;DHT22;54618;52.018;5.576;2023-04-24T08:49:14;21.50;49.20
67820;DHT22;54618;52.018;5.576;2023-04-24T08:51:44;21.50;49.10
67820;DHT22;54618;52.018;5.576;2023-04-24T08:54:11;21.60;49.20
67820;DHT22;54618;52.018;5.576;2023-04-24T08:56:37;21.50;49.20
67820;DHT22;54618;52.018;5.576;2023-04-24T08:59:06;21.60;49.20
67820;DHT22;54618;52.018;5.576;2023-04-24T09:01:32;21.60;49.20
67820;DHT22;54618;52.018;5.576;2023-04-24T09:04:03;21.60;49.10
67820;DHT22;54618;52.018;5.576;2023-04-24T09:06:30;21.60;49.20
67820;DHT22;54618;52.018;5.576;2023-04-24T09:08:59;21.60;49.20
67820;DHT22;54618;52.018;5.576;2023-04-24T09:11:25;21.60;49.10
67820;DHT22;54618;52.018;5.576;2023-04-24T09:13:53;21.60;49.10
67820;DHT22;54618;52.018;5.576;2023-04-24T09:16:19;21.60;49.10
67820;DHT22;54618;52.018;5.576;2023-04-24T09:18:45;21.60;49.10
67820;DHT22;54618;52.018;5.576;2023-04-24T09:21:11;21.60;49.10
67820;DHT22;54618;52.018;5.576;2023-04-24T09:23:37;21.60;49.10
67820;DHT22;54618;52.018;5.576;2023-04-24T09:26:04;21.60;49.10
67820;DHT22;54618;52.018;5.576;2023-04-24T09:28:36;21.70;49.10
67820;DHT22;54618;52.018;5.576;2023-04-24T09:31:11;21.70;49.20
67820;DHT22;54618;52.018;5.576;2023-04-24T09:33:38;21.70;49.10
67820;DHT22;54618;52.018;5.576;2023-04-24T09:36:04;21.70;49.10
67820;DHT22;54618;52.018;5.576;2023-04-24T09:38:35;21.70;49.10
67820;DHT22;54618;52.018;5.576;2023-04-24T09:41:03;21.70;49.10
67820;DHT22;54618;52.018;5.576;2023-04-24T09:43:30;21.70;49.10
67820;DHT22;54618;52.018;5.576;2023-04-24T09:45:56;21.70;49.10
67820;DHT22;54618;52.018;5.576;2023-04-24T09:48:52;21.70;49.20
67820;DHT22;54618;52.018;5.576;2023-04-24T09:51:33;21.70;49.10
67820;DHT22;54618;52.018;5.576;2023-04-24T09:53:59;21.70;49.10
67820;DHT22;54618;52.018;5.576;2023-04-24T09:56:25;21.70;49.20
67820;DHT22;54618;52.018;5.576;2023-04-24T09:58:51;21.80;49.20
67820;DHT22;54618;52.018;5.576;2023-04-24T10:01:32;21.80;49.20
67820;DHT22;54618;52.018;5.576;2023-04-24T10:03:57;21.80;49.10
67820;DHT22;54618;52.018;5.576;2023-04-24T10:06:31;21.80;49.10
67820;DHT22;54618;52.018;5.576;2023-04-24T10:08:56;21.80;49.00
67820;DHT22;54618;52.018;5.576;2023-04-24T10:11:25;21.80;49.00
67820;DHT22;54618;52.018;5.576;2023-04-24T10:13:52;21.90;49.00
67820;DHT22;54618;52.018;5.576;2023-04-24T10:16:18;21.80;49.00
67820;DHT22;54618;52.018;5.576;2023-04-24T10:18:45;21.90;49.10
67820;DHT22;54618;52.018;5.576;2023-04-24T10:21:11;21.80;49.00
67820;DHT22;54618;52.018;5.576;2023-04-24T10:23:37;21.90;49.00
67820;DHT22;54618;52.018;5.576;2023-04-24T10:26:03;21.90;49.00
67820;DHT22;54618;52.018;5.576;2023-04-24T10:28:30;21.90;49.00
67820;DHT22;54618;52.018;5.576;2023-04-24T10:30:57;21.90;49.00
67820;DHT22;54618;52.018;5.576;2023-04-24T10:33:24;21.80;49.00
67820;DHT22;54618;52.018;5.576;2023-04-24T10:35:51;21.90;49.00
67820;DHT22;54618;52.018;5.576;2023-04-24T10:38:22;21.90;48.90
67820;DHT22;54618;52.018;5.576;2023-04-24T10:40:50;21.90;48.90
67820;DHT22;54618;52.018;5.576;2023-04-24T10:43:17;21.90;48.90
67820;DHT22;54618;52.018;5.576;2023-04-24T10:46:03;21.90;48.80
67820;DHT22;54618;52.018;5.576;2023-04-24T10:48:30;21.90;48.70
67820;DHT22;54618;52.018;5.576;2023-04-24T10:50:55;21.80;48.90
67820;DHT22;54618;52.018;5.576;2023-04-24T10:53:24;21.80;49.00
67820;DHT22;54618;52.018;5.576;2023-04-24T10:55:58;21.80;49.00
67820;DHT22;54618;52.018;5.576;2023-04-24T10:58:35;21.80;48.90
67820;DHT22;54618;52.018;5.576;2023-04-24T11:01:00;21.80;48.90
67820;DHT22;54618;52.018;5.576;2023-04-24T11:03:29;21.80;48.90
67820;DHT22;54618;52.018;5.576;2023-04-24T11:06:03;21.80;48.90
67820;DHT22;54618;52.018;5.576;2023-04-24T11:08:45;21.80;48.80
67820;DHT22;54618;52.018;5.576;2023-04-24T11:21:58;21.90;49.00
67820;DHT22;54618;52.018;5.576;2023-04-24T11:24:38;21.90;49.00
67820;DHT22;54618;52.018;5.576;2023-04-24T11:29:40;21.90;49.10
67820;DHT22;54618;52.018;5.576;2023-04-24T11:34:56;21.90;49.20
67820;DHT22;54618;52.018;5.576;2023-04-24T11:37:23;21.80;49.20
67820;DHT22;54618;52.018;5.576;2023-04-24T11:39:53;21.90;49.30
67820;DHT22;54618;52.018;5.576;2023-04-24T11:42:21;21.90;49.30
67820;DHT22;54618;52.018;5.576;2023-04-24T11:44:46;21.80;49.30
67820;DHT22;54618;52.018;5.576;2023-04-24T11:47:13;21.80;49.30
67820;DHT22;54618;52.018;5.576;2023-04-24T11:49:39;21.80;49.40
67820;DHT22;54618;52.018;5.576;2023-04-24T11:52:05;21.90;49.40
67820;DHT22;54618;52.018;5.576;2023-04-24T11:54:31;21.80;49.40
67820;DHT22;54618;52.018;5.576;2023-04-24T11:56:57;21.80;49.40
67820;DHT22;54618;52.018;5.576;2023-04-24T11:59:22;21.80;49.40
67820;DHT22;54618;52.018;5.576;2023-04-24T12:01:49;21.80;49.40
67820;DHT22;54618;52.018;5.576;2023-04-24T12:04:16;21.80;49.40
67820;DHT22;54618;52.018;5.576;2023-04-24T12:07:02;21.80;49.40
67820;DHT22;54618;52.018;5.576;2023-04-24T12:09:28;21.80;49.40
67820;DHT22;54618;52.018;5.576;2023-04-24T12:11:55;21.80;49.40
67820;DHT22;54618;52.018;5.576;2023-04-24T12:14:24;21.80;49.40
67820;DHT22;54618;52.018;5.576;2023-04-24T12:16:50;21.80;49.40
67820;DHT22;54618;52.018;5.576;2023-04-24T12:19:23;21.80;49.30
67820;DHT22;54618;52.018;5.576;2023-04-24T12:22:03;21.80;49.20
67820;DHT22;54618;52.018;5.576;2023-04-24T12:24:29;21.80;49.20
67820;DHT22;54618;52.018;5.576;2023-04-24T12:26:56;21.80;49.20
67820;DHT22;54618;52.018;5.576;2023-04-24T12:29:22;21.80;49.20
67820;DHT22;54618;52.018;5.576;2023-04-24T12:31:48;21.80;49.20
67820;DHT22;54618;52.018;5.576;2023-04-24T12:34:18;21.80;49.20
67820;DHT22;54618;52.018;5.576;2023-04-24T12:36:44;21.80;49.20
67820;DHT22;54618;52.018;5.576;2023-04-24T12:39:17;21.80;49.20
67820;DHT22;54618;52.018;5.576;2023-04-24T12:41:56;21.80;49.20
67820;DHT22;54618;52.018;5.576;2023-04-24T12:44:32;21.80;49.10
67820;DHT22;54618;52.018;5.576;2023-04-24T12:47:00;21.70;49.10
67820;DHT22;54618;52.018;5.576;2023-04-24T12:49:26;21.80;49.20
67820;DHT22;54618;52.018;5.576;2023-04-24T12:51:51;21.70;49.10
67820;DHT22;54618;52.018;5.576;2023-04-24T12:54:17;21.80;49.10
67820;DHT22;54618;52.018;5.576;2023-04-24T12:56:42;21.80;49.10
67820;DHT22;54618;52.018;5.576;2023-04-24T12:59:08;21.80;49.10
67820;DHT22;54618;52.018;5.576;2023-04-24T13:01:34;21.80;49.10
67820;DHT22;54618;52.018;5.576;2023-04-24T13:03:59;21.80;49.00
67820;DHT22;54618;52.018;5.576;2023-04-24T13:06:25;21.80;49.00
67820;DHT22;54618;52.018;5.576;2023-04-24T13:08:52;21.70;48.90
67820;DHT22;54618;52.018;5.576;2023-04-24T13:11:17;21.70;49.00
67820;DHT22;54618;52.018;5.576;2023-04-24T13:13:43;21.70;49.00
67820;DHT22;54618;52.018;5.576;2023-04-24T13:16:09;21.70;49.00
67820;DHT22;54618;52.018;5.576;2023-04-24T13:18:35;21.70;49.00
67820;DHT22;54618;52.018;5.576;2023-04-24T13:21:01;21.70;49.00
67820;DHT22;54618;52.018;5.576;2023-04-24T13:23:26;21.70;49.00
67820;DHT22;54618;52.018;5.576;2023-04-24T13:25:53;21.70;49.60
67820;DHT22;54618;52.018;5.576;2023-04-24T13:28:23;21.60;48.90
67820;DHT22;54618;52.018;5.576;2023-04-24T13:30:48;21.60;48.90
67820;DHT22;54618;52.018;5.576;2023-04-24T13:33:14;21.70;48.90
67820;DHT22;54618;52.018;5.576;2023-04-24T13:35:40;21.70;49.00
67820;DHT22;54618;52.018;5.576;2023-04-24T13:38:05;21.70;49.00
67820;DHT22;54618;52.018;5.576;2023-04-24T13:40:31;21.60;49.10
67820;DHT22;54618;52.018;5.576;2023-04-24T13:42:58;21.60;49.20
67820;DHT22;54618;52.018;5.576;2023-04-24T13:45:23;21.50;49.20
67820;DHT22;54618;52.018;5.576;2023-04-24T13:47:50;21.50;49.40
67820;DHT22;54618;52.018;5.576;2023-04-24T13:50:15;21.50;49.40
67820;DHT22;54618;52.018;5.576;2023-04-24T13:52:41;21.40;49.40
67820;DHT22;54618;52.018;5.576;2023-04-24T13:55:07;21.40;49.50
67820;DHT22;54618;52.018;5.576;2023-04-24T13:57:32;21.30;49.60
67820;DHT22;54618;52.018;5.576;2023-04-24T13:59:58;21.30;49.60
67820;DHT22;54618;52.018;5.576;2023-04-24T14:02:27;21.30;49.70
67820;DHT22;54618;52.018;5.576;2023-04-24T14:04:52;21.20;49.60
67820;DHT22;54618;52.018;5.576;2023-04-24T14:07:18;21.20;49.60
67820;DHT22;54618;52.018;5.576;2023-04-24T14:09:43;21.20;49.70
67820;DHT22;54618;52.018;5.576;2023-04-24T14:12:09;21.20;49.70
67820;DHT22;54618;52.018;5.576;2023-04-24T14:14:35;21.20;49.60
67820;DHT22;54618;52.018;5.576;2023-04-24T14:17:00;21.10;49.60
67820;DHT22;54618;52.018;5.576;2023-04-24T14:19:26;21.10;49.60
67820;DHT22;54618;52.018;5.576;2023-04-24T14:21:51;21.10;49.70
67820;DHT22;54618;52.018;5.576;2023-04-24T14:24:17;21.00;49.70
67820;DHT22;54618;52.018;5.576;2023-04-24T14:26:42;21.00;49.70
67820;DHT22;54618;52.018;5.576;2023-04-24T14:29:08;21.00;49.70
67820;DHT22;54618;52.018;5.576;2023-04-24T14:31:34;20.90;49.80
67820;DHT22;54618;52.018;5.576;2023-04-24T14:34:00;20.90;49.70
67820;DHT22;54618;52.018;5.576;2023-04-24T14:36:25;21.00;49.80
67820;DHT22;54618;52.018;5.576;2023-04-24T14:38:51;21.00;49.80
67820;DHT22;54618;52.018;5.576;2023-04-24T14:41:16;20.90;49.80
67820;DHT22;54618;52.018;5.576;2023-04-24T14:43:42;21.00;49.90
67820;DHT22;54618;52.018;5.576;2023-04-24T14:46:08;20.90;49.70
67820;DHT22;54618;52.018;5.576;2023-04-24T14:48:33;21.00;49.80
67820;DHT22;54618;52.018;5.576;2023-04-24T14:50:59;21.00;49.80
67820;DHT22;54618;52.018;5.576;2023-04-24T14:53:24;21.00;49.80
67820;DHT22;54618;52.018;5.576;2023-04-24T14:55:50;21.00;49.80
67820;DHT22;54618;52.018;5.576;2023-04-24T14:58:15;21.00;49.70
67820;DHT22;54618;52.018;5.576;2023-04-24T15:00:41;21.00;49.80
67820;DHT22;54618;52.018;5.576;2023-04-24T15:03:06;21.00;49.80
67820;DHT22;54618;52.018;5.576;2023-04-24T15:05:32;21.00;49.70
67820;DHT22;54618;52.018;5.576;2023-04-24T15:07:58;21.00;49.70
67820;DHT22;54618;52.018;5.576;2023-04-24T15:10:23;21.00;49.80
67820;DHT22;54618;52.018;5.576;2023-04-24T15:12:50;21.00;49.80
67820;DHT22;54618;52.018;5.576;2023-04-24T15:15:16;21.00;49.70
67820;DHT22;54618;52.018;5.576;2023-04-24T15:17:42;21.00;49.80
67820;DHT22;54618;52.018;5.576;2023-04-24T15:20:07;21.00;49.80
67820;DHT22;54618;52.018;5.576;2023-04-24T15:22:33;21.00;49.70
67820;DHT22;54618;52.018;5.576;2023-04-24T15:24:59;21.00;49.70
67820;DHT22;54618;52.018;5.576;2023-04-24T15:27:24;21.00;49.80
67820;DHT22;54618;52.018;5.576;2023-04-24T15:29:50;21.10;49.90
67820;DHT22;54618;52.018;5.576;2023-04-24T15:32:16;21.10;50.20
67820;DHT22;54618;52.018;5.576;2023-04-24T15:34:41;21.10;50.30
67820;DHT22;54618;52.018;5.576;2023-04-24T15:37:07;21.10;50.40
67820;DHT22;54618;52.018;5.576;2023-04-24T15:39:32;21.10;50.40
67820;DHT22;54618;52.018;5.576;2023-04-24T15:41:59;21.10;50.30